Terminal Aerodrome Forecast
Issued by NWS

Home | Current Version | Previous Version | Text Only | Print | Product List | Glossary On
Versions: 1 2 3 4 5 6 7 8 9 10 11 12 13 14
000
FTUS41 KILN 222320
TAFLUK
TAF
KLUK 222320Z 2300/2324 19010KT P6SM -SHRA OVC025
     FM230300 19011KT P6SM VCSH BKN018 OVC022
      TEMPO 2305/2309 BKN010 OVC018
     FM231300 21012G18KT 5SM SHRA BR OVC018
      TEMPO 2315/2319 3SM +SHRA OVC012=

USA.gov is the U.S. government's official web portal to all federal, state and local government web resources and services.